Time;durP1;ratioP1;P1;durP2;ratioP2;P2;SDS_P1;SDS_P2;PMS_P1;PMS_P2;Temp;Humidity;BMP_temperature;BMP_pressure;BME280_temperature;BME280_humidity;BME280_pressure;Samples;Min_cycle;Max_cycle;Signal;HPM_P1;HPM_P2
2023/05/09 00:00:30;;;;;;;5.78;2.60;;;;;;;;;;4992478;28;20268;-49
2023/05/09 00:02:56;;;;;;;4.50;2.90;;;;;;;;;;4993256;28;20185;-49
2023/05/09 00:05:22;;;;;;;4.35;3.05;;;;;;;;;;4993898;28;20219;-48
2023/05/09 00:07:48;;;;;;;2.65;2.17;;;;;;;;;;4992907;28;20178;-49
2023/05/09 00:10:14;;;;;;;3.72;2.47;;;;;;;;;;4993295;28;20264;-49
2023/05/09 00:12:42;;;;;;;2.60;2.40;;;;;;;;;;4993632;28;20197;-48
2023/05/09 00:15:08;;;;;;;3.60;2.72;;;;;;;;;;4992311;28;20201;-49
2023/05/09 00:17:35;;;;;;;4.30;2.60;;;;;;;;;;4992751;28;20276;-48
2023/05/09 00:20:01;;;;;;;3.97;2.47;;;;;;;;;;4992375;28;20189;-48
2023/05/09 00:22:27;;;;;;;3.38;2.53;;;;;;;;;;4992479;28;20193;-48
2023/05/09 00:24:53;;;;;;;2.47;2.22;;;;;;;;;;4994194;28;20185;-48
2023/05/09 00:27:19;;;;;;;2.53;2.33;;;;;;;;;;4993094;28;20204;-48
2023/05/09 00:29:45;;;;;;;4.07;2.80;;;;;;;;;;4991755;28;20259;-48
2023/05/09 00:32:11;;;;;;;3.22;2.92;;;;;;;;;;4992012;28;20288;-48
2023/05/09 00:34:37;;;;;;;2.60;2.40;;;;;;;;;;4993482;28;20196;-48
2023/05/09 00:37:02;;;;;;;2.78;2.40;;;;;;;;;;4992808;28;20209;-48
2023/05/09 00:39:28;;;;;;;3.20;2.58;;;;;;;;;;4992206;28;20189;-49
2023/05/09 00:41:56;;;;;;;2.80;2.60;;;;;;;;;;4982098;28;20189;-48
2023/05/09 00:44:22;;;;;;;2.47;2.28;;;;;;;;;;4992636;28;20185;-48
2023/05/09 00:46:48;;;;;;;2.95;2.47;;;;;;;;;;4992588;28;20189;-48
2023/05/09 00:49:14;;;;;;;3.50;2.70;;;;;;;;;;4991159;28;20271;-48
2023/05/09 00:51:40;;;;;;;3.33;2.58;;;;;;;;;;4993086;28;20193;-48
2023/05/09 00:54:07;;;;;;;3.05;2.45;;;;;;;;;;4992873;28;20243;-49
2023/05/09 00:56:33;;;;;;;2.75;2.50;;;;;;;;;;4991571;28;20604;-48
2023/05/09 00:58:59;;;;;;;2.72;2.38;;;;;;;;;;4990861;28;20196;-49
2023/05/09 01:01:25;;;;;;;2.53;2.25;;;;;;;;;;4992829;28;20197;-48
2023/05/09 01:03:52;;;;;;;3.97;2.42;;;;;;;;;;4993141;28;20220;-48
2023/05/09 01:06:38;;;;;;;3.55;2.30;;;;;;;;;;4992834;28;20193;-49
2023/05/09 01:09:04;;;;;;;2.55;2.08;;;;;;;;;;4991137;28;22013;-48
2023/05/09 01:11:45;;;;;;;2.22;2.03;;;;;;;;;;4992460;28;20457;-48
2023/05/09 01:14:26;;;;;;;2.50;2.30;;;;;;;;;;4992360;28;20239;-48
2023/05/09 01:17:00;;;;;;;2.60;2.28;;;;;;;;;;4992321;28;20213;-48
2023/05/09 01:19:45;;;;;;;2.47;2.28;;;;;;;;;;4991011;28;20184;-48
2023/05/09 01:22:13;;;;;;;6.00;2.63;;;;;;;;;;4992030;28;20288;-48
2023/05/09 01:24:48;;;;;;;5.60;2.35;;;;;;;;;;4991783;28;20181;-48
2023/05/09 01:27:21;;;;;;;2.30;2.10;;;;;;;;;;4992454;28;20188;-48
2023/05/09 01:29:47;;;;;;;2.55;2.20;;;;;;;;;;4991052;28;20239;-48
2023/05/09 01:32:15;;;;;;;3.70;1.98;;;;;;;;;;4989908;28;20232;-49
2023/05/09 01:34:42;;;;;;;3.03;2.40;;;;;;;;;;4992395;28;20188;-49
2023/05/09 01:37:09;;;;;;;2.17;1.92;;;;;;;;;;4992115;28;20263;-49
2023/05/09 01:39:38;;;;;;;2.30;2.10;;;;;;;;;;4991196;28;20247;-49
2023/05/09 01:42:04;;;;;;;2.70;2.17;;;;;;;;;;4991895;28;20189;-48
2023/05/09 01:44:33;;;;;;;2.35;1.92;;;;;;;;;;4991710;28;20252;-48
2023/05/09 01:47:00;;;;;;;2.70;2.08;;;;;;;;;;4990821;28;20182;-49
2023/05/09 01:49:28;;;;;;;3.00;2.05;;;;;;;;;;4989915;28;20254;-48
2023/05/09 01:51:54;;;;;;;2.95;1.98;;;;;;;;;;4992387;28;20184;-48
2023/05/09 01:54:22;;;;;;;3.42;2.10;;;;;;;;;;4991312;28;20311;-48
2023/05/09 01:56:48;;;;;;;3.38;1.92;;;;;;;;;;4991864;28;20311;-48
2023/05/09 01:59:14;;;;;;;1.90;1.70;;;;;;;;;;4989063;28;20232;-49
2023/05/09 02:01:41;;;;;;;1.88;1.73;;;;;;;;;;4988958;28;20182;-49
2023/05/09 02:04:07;;;;;;;3.20;1.95;;;;;;;;;;4991028;28;20201;-48
2023/05/09 02:06:33;;;;;;;2.70;2.50;;;;;;;;;;4991423;28;20189;-48
2023/05/09 02:08:59;;;;;;;3.42;1.88;;;;;;;;;;4990024;28;20185;-48
2023/05/09 02:11:25;;;;;;;1.80;1.70;;;;;;;;;;4991047;28;20204;-48
2023/05/09 02:13:51;;;;;;;2.90;1.95;;;;;;;;;;4991084;28;20472;-48
2023/05/09 02:16:17;;;;;;;2.30;2.03;;;;;;;;;;4990885;28;20327;-48
2023/05/09 02:18:43;;;;;;;1.83;1.73;;;;;;;;;;4993471;28;20213;-49
2023/05/09 02:21:09;;;;;;;3.03;2.10;;;;;;;;;;4993476;28;20181;-48
2023/05/09 02:23:35;;;;;;;2.30;2.10;;;;;;;;;;4994594;28;20276;-49
2023/05/09 02:26:01;;;;;;;2.20;2.03;;;;;;;;;;4994147;28;20211;-49
2023/05/09 02:28:28;;;;;;;3.25;2.20;;;;;;;;;;4992588;28;20577;-48
2023/05/09 02:30:55;;;;;;;2.50;2.25;;;;;;;;;;4993536;28;20564;-48
2023/05/09 02:33:21;;;;;;;2.33;2.10;;;;;;;;;;4993179;28;20448;-48
2023/05/09 02:35:48;;;;;;;2.95;2.30;;;;;;;;;;4993625;28;20216;-48
2023/05/09 02:38:14;;;;;;;1.90;1.80;;;;;;;;;;4993505;28;20228;-48
2023/05/09 02:40:42;;;;;;;2.08;1.98;;;;;;;;;;4990494;28;20193;-48
2023/05/09 02:43:08;;;;;;;2.78;1.80;;;;;;;;;;4993753;28;20569;-48
2023/05/09 02:45:34;;;;;;;2.67;1.98;;;;;;;;;;4982301;28;20184;-49
2023/05/09 02:48:00;;;;;;;2.88;1.90;;;;;;;;;;4994139;28;20196;-49
2023/05/09 02:50:26;;;;;;;2.85;2.05;;;;;;;;;;4992615;28;20189;-49
2023/05/09 02:52:52;;;;;;;2.45;1.88;;;;;;;;;;4993706;28;20505;-48
2023/05/09 02:55:18;;;;;;;3.77;2.00;;;;;;;;;;4958274;28;984497;-48
2023/05/09 02:57:44;;;;;;;3.17;2.47;;;;;;;;;;4994509;28;20185;-49
2023/05/09 03:00:10;;;;;;;2.72;2.10;;;;;;;;;;4992310;28;20197;-49
2023/05/09 03:02:37;;;;;;;2.95;2.22;;;;;;;;;;4994317;28;20208;-49
2023/05/09 03:05:03;;;;;;;2.13;1.92;;;;;;;;;;4994172;28;20239;-49
2023/05/09 03:07:29;;;;;;;2.72;2.10;;;;;;;;;;4993241;28;20200;-49
2023/05/09 03:09:55;;;;;;;2.80;2.20;;;;;;;;;;4988380;28;20742;-49
2023/05/09 03:12:21;;;;;;;2.97;2.20;;;;;;;;;;4993497;28;20177;-49
2023/05/09 03:14:47;;;;;;;3.28;2.25;;;;;;;;;;4993932;28;20189;-49
2023/05/09 03:17:16;;;;;;;2.38;2.10;;;;;;;;;;4992742;28;20219;-48
2023/05/09 03:19:42;;;;;;;2.85;2.30;;;;;;;;;;4992534;28;20188;-48
2023/05/09 03:22:08;;;;;;;2.38;1.95;;;;;;;;;;4992190;28;20268;-48
2023/05/09 03:24:34;;;;;;;2.47;2.25;;;;;;;;;;4992818;28;20189;-48
2023/05/09 03:26:59;;;;;;;3.08;2.30;;;;;;;;;;4994282;28;20193;-49
2023/05/09 03:29:25;;;;;;;3.08;2.10;;;;;;;;;;4992237;28;20181;-49
2023/05/09 03:31:51;;;;;;;3.85;2.20;;;;;;;;;;4977563;28;20189;-48
2023/05/09 03:34:17;;;;;;;4.38;2.00;;;;;;;;;;4994437;28;20276;-48
2023/05/09 03:36:43;;;;;;;2.92;1.77;;;;;;;;;;4993858;28;20220;-49
2023/05/09 03:39:09;;;;;;;2.92;2.38;;;;;;;;;;4992421;28;20201;-48
2023/05/09 03:41:36;;;;;;;4.78;2.20;;;;;;;;;;4991955;28;20181;-48
2023/05/09 03:44:02;;;;;;;2.53;2.20;;;;;;;;;;4994083;28;20185;-48
2023/05/09 03:46:28;;;;;;;4.38;2.35;;;;;;;;;;4993038;28;20193;-48
2023/05/09 03:48:54;;;;;;;2.45;2.20;;;;;;;;;;4992770;28;20247;-49
2023/05/09 03:51:20;;;;;;;7.68;3.25;;;;;;;;;;4991922;28;20185;-49
2023/05/09 03:53:46;;;;;;;16.55;3.28;;;;;;;;;;4993482;28;20204;-49
2023/05/09 03:56:12;;;;;;;9.50;3.80;;;;;;;;;;4995676;28;20226;-49
2023/05/09 03:58:38;;;;;;;10.45;4.07;;;;;;;;;;4988756;28;20196;-48
2023/05/09 04:01:04;;;;;;;12.93;3.92;;;;;;;;;;4996737;28;20181;-49
2023/05/09 04:03:30;;;;;;;7.65;3.75;;;;;;;;;;4997661;28;20169;-49
2023/05/09 04:05:56;;;;;;;15.35;4.47;;;;;;;;;;4996606;28;20220;-49
2023/05/09 04:08:22;;;;;;;25.65;8.02;;;;;;;;;;4996845;28;20212;-44
2023/05/09 04:10:49;;;;;;;18.15;5.10;;;;;;;;;;4995723;28;20564;-44
2023/05/09 04:13:15;;;;;;;18.67;5.93;;;;;;;;;;4997392;28;20280;-44
2023/05/09 04:15:41;;;;;;;11.55;4.85;;;;;;;;;;4997306;28;20348;-44
2023/05/09 04:18:07;;;;;;;9.65;4.40;;;;;;;;;;4995134;28;20276;-44
2023/05/09 04:20:33;;;;;;;9.80;3.75;;;;;;;;;;4994742;28;20276;-44
2023/05/09 04:22:59;;;;;;;10.20;3.97;;;;;;;;;;4997116;28;20271;-44
2023/05/09 04:25:25;;;;;;;9.45;3.83;;;;;;;;;;4996743;28;20312;-44
2023/05/09 04:27:51;;;;;;;6.75;3.50;;;;;;;;;;4996979;28;20189;-44
2023/05/09 04:30:17;;;;;;;8.57;3.42;;;;;;;;;;4994029;28;20537;-43
2023/05/09 04:32:44;;;;;;;7.13;3.38;;;;;;;;;;4996941;28;20244;-43
2023/05/09 04:35:11;;;;;;;8.27;3.45;;;;;;;;;;4996491;28;20181;-43
2023/05/09 04:37:37;;;;;;;4.70;2.95;;;;;;;;;;4996673;28;20208;-44
2023/05/09 04:40:04;;;;;;;6.85;2.70;;;;;;;;;;4995693;28;20186;-44
2023/05/09 04:42:32;;;;;;;7.85;3.22;;;;;;;;;;4995359;28;20454;-43
2023/05/09 04:44:58;;;;;;;8.00;3.60;;;;;;;;;;4995703;28;20300;-44
2023/05/09 04:47:24;;;;;;;5.57;3.03;;;;;;;;;;4996681;28;20205;-44
2023/05/09 04:49:50;;;;;;;7.13;3.13;;;;;;;;;;4994687;28;20185;-43
2023/05/09 04:52:16;;;;;;;4.40;2.83;;;;;;;;;;4995440;28;20454;-44
2023/05/09 04:54:42;;;;;;;6.47;3.03;;;;;;;;;;4995921;28;20181;-44
2023/05/09 04:57:08;;;;;;;6.68;2.53;;;;;;;;;;4995429;28;20220;-44
2023/05/09 04:59:34;;;;;;;6.30;2.83;;;;;;;;;;4995387;28;20181;-43
2023/05/09 05:02:00;;;;;;;3.95;2.47;;;;;;;;;;4994410;28;20189;-44
2023/05/09 05:04:27;;;;;;;7.40;3.08;;;;;;;;;;4990092;28;20185;-44
2023/05/09 05:06:53;;;;;;;3.33;2.60;;;;;;;;;;4993268;28;20177;-44
2023/05/09 05:09:19;;;;;;;7.22;3.28;;;;;;;;;;4992459;28;20231;-44
2023/05/09 05:11:45;;;;;;;4.95;2.70;;;;;;;;;;4994326;28;20188;-44
2023/05/09 05:14:11;;;;;;;3.67;2.92;;;;;;;;;;4994026;28;20193;-44
2023/05/09 05:16:37;;;;;;;3.22;2.72;;;;;;;;;;4995195;28;22103;-44
2023/05/09 05:19:03;;;;;;;5.68;2.72;;;;;;;;;;4993252;28;20696;-43
2023/05/09 05:21:29;;;;;;;3.10;2.50;;;;;;;;;;4993595;28;20266;-44
2023/05/09 05:23:55;;;;;;;3.45;2.60;;;;;;;;;;4993444;28;20519;-44
2023/05/09 05:26:21;;;;;;;5.18;2.85;;;;;;;;;;4994033;28;20287;-44
2023/05/09 05:28:47;;;;;;;3.80;2.47;;;;;;;;;;4993605;28;20189;-44
2023/05/09 05:31:12;;;;;;;3.88;2.75;;;;;;;;;;4991612;28;20188;-44
2023/05/09 05:33:38;;;;;;;4.60;2.50;;;;;;;;;;4995986;28;20557;-44
2023/05/09 05:36:04;;;;;;;3.53;2.50;;;;;;;;;;4993311;28;20201;-44
2023/05/09 05:38:30;;;;;;;4.35;2.40;;;;;;;;;;4994327;28;20181;-44
2023/05/09 05:40:56;;;;;;;3.17;2.38;;;;;;;;;;4993189;28;20199;-43
2023/05/09 05:43:22;;;;;;;3.55;2.65;;;;;;;;;;4994940;28;20276;-44
2023/05/09 05:45:48;;;;;;;7.10;2.63;;;;;;;;;;4994272;28;20325;-43
2023/05/09 05:48:14;;;;;;;3.40;2.47;;;;;;;;;;4994988;28;20271;-44
2023/05/09 05:50:40;;;;;;;3.25;2.40;;;;;;;;;;4993770;28;20184;-44
2023/05/09 05:53:06;;;;;;;3.13;2.45;;;;;;;;;;4995455;28;20223;-44
2023/05/09 05:55:31;;;;;;;4.25;2.60;;;;;;;;;;4994646;28;20611;-44
2023/05/09 05:57:57;;;;;;;4.13;2.70;;;;;;;;;;4993767;28;20232;-44
2023/05/09 06:00:23;;;;;;;2.60;2.40;;;;;;;;;;4994748;28;20561;-44
2023/05/09 06:02:49;;;;;;;4.45;2.20;;;;;;;;;;4995635;28;20252;-43
2023/05/09 06:05:15;;;;;;;2.67;2.40;;;;;;;;;;4995529;28;20568;-43
2023/05/09 06:07:43;;;;;;;4.68;2.78;;;;;;;;;;4994017;28;20177;-44
2023/05/09 06:10:09;;;;;;;2.83;2.15;;;;;;;;;;4994564;28;20208;-44
2023/05/09 06:12:35;;;;;;;3.97;2.35;;;;;;;;;;4995247;28;20188;-43
2023/05/09 06:15:01;;;;;;;3.75;2.33;;;;;;;;;;4995443;28;20456;-44
2023/05/09 06:17:27;;;;;;;3.00;2.25;;;;;;;;;;4995403;28;20200;-44
2023/05/09 06:19:53;;;;;;;3.15;2.55;;;;;;;;;;4994032;28;20205;-43
2023/05/09 06:22:19;;;;;;;4.75;2.70;;;;;;;;;;4995267;28;20219;-44
2023/05/09 06:24:45;;;;;;;2.17;1.92;;;;;;;;;;4995234;28;20232;-44
2023/05/09 06:27:11;;;;;;;2.83;2.35;;;;;;;;;;4994888;28;20197;-44
2023/05/09 06:29:37;;;;;;;2.60;2.20;;;;;;;;;;4994351;28;20185;-44
2023/05/09 06:32:03;;;;;;;5.85;2.03;;;;;;;;;;4995280;28;20177;-44
2023/05/09 06:34:28;;;;;;;4.50;2.47;;;;;;;;;;4994545;28;20272;-44
2023/05/09 06:36:54;;;;;;;2.58;2.25;;;;;;;;;;4995138;28;20244;-44
2023/05/09 06:39:20;;;;;;;2.60;2.40;;;;;;;;;;4994242;28;20200;-44
2023/05/09 06:41:46;;;;;;;3.60;2.10;;;;;;;;;;4994633;28;20181;-43
2023/05/09 06:44:12;;;;;;;2.03;1.90;;;;;;;;;;4995357;28;20264;-44
2023/05/09 06:46:38;;;;;;;2.88;2.08;;;;;;;;;;4993826;28;20615;-43
2023/05/09 06:49:04;;;;;;;2.55;2.10;;;;;;;;;;4993825;28;20189;-45
2023/05/09 06:51:31;;;;;;;6.22;2.72;;;;;;;;;;4994360;28;20173;-44
2023/05/09 06:53:57;;;;;;;5.35;2.30;;;;;;;;;;4995172;28;20272;-43
2023/05/09 06:56:24;;;;;;;3.47;2.40;;;;;;;;;;4994305;28;20259;-44
2023/05/09 06:58:50;;;;;;;2.30;2.10;;;;;;;;;;4994551;28;20181;-43
2023/05/09 07:01:16;;;;;;;6.72;2.70;;;;;;;;;;4994165;28;20190;-43
2023/05/09 07:03:42;;;;;;;2.67;2.30;;;;;;;;;;4994856;28;20459;-44
2023/05/09 07:06:08;;;;;;;4.57;2.40;;;;;;;;;;4994781;28;20301;-44
2023/05/09 07:08:34;;;;;;;4.38;3.13;;;;;;;;;;4992982;28;20189;-42
2023/05/09 07:11:00;;;;;;;4.22;2.75;;;;;;;;;;4994649;28;20195;-44
2023/05/09 07:13:26;;;;;;;5.03;2.80;;;;;;;;;;4994891;28;20193;-44
2023/05/09 07:15:52;;;;;;;5.35;2.60;;;;;;;;;;4994803;28;20211;-44
2023/05/09 07:18:18;;;;;;;3.50;2.88;;;;;;;;;;4993899;28;20235;-44
2023/05/09 07:20:44;;;;;;;2.85;2.53;;;;;;;;;;4994277;28;20188;-44
2023/05/09 07:23:10;;;;;;;3.20;2.20;;;;;;;;;;4994248;28;20216;-44
2023/05/09 07:25:35;;;;;;;3.70;2.50;;;;;;;;;;4994343;28;20537;-44
2023/05/09 07:28:01;;;;;;;5.05;2.45;;;;;;;;;;4994188;28;20267;-44
2023/05/09 07:30:27;;;;;;;3.92;2.78;;;;;;;;;;4994413;28;20195;-44
2023/05/09 07:32:53;;;;;;;2.97;2.40;;;;;;;;;;4998322;28;20211;-44
2023/05/09 07:35:20;;;;;;;2.30;2.08;;;;;;;;;;4998442;28;20177;-44
2023/05/09 07:37:46;;;;;;;2.42;2.03;;;;;;;;;;4996257;28;20284;-44
2023/05/09 07:40:12;;;;;;;5.57;2.30;;;;;;;;;;4980700;28;20272;-44
2023/05/09 07:42:38;;;;;;;2.67;2.05;;;;;;;;;;4997975;28;20181;-44
2023/05/09 07:45:05;;;;;;;2.13;1.92;;;;;;;;;;4998320;28;20169;-44
2023/05/09 07:47:31;;;;;;;2.45;1.90;;;;;;;;;;4997863;28;20179;-44
2023/05/09 07:49:57;;;;;;;3.60;2.20;;;;;;;;;;4997330;28;20196;-44
2023/05/09 07:52:23;;;;;;;2.30;2.10;;;;;;;;;;4997638;28;20181;-44
2023/05/09 07:54:49;;;;;;;3.22;2.10;;;;;;;;;;4998005;28;20478;-44
2023/05/09 07:57:15;;;;;;;3.83;2.08;;;;;;;;;;4997997;28;20209;-44
2023/05/09 07:59:41;;;;;;;2.10;1.98;;;;;;;;;;4997065;28;20502;-44
2023/05/09 08:02:07;;;;;;;2.13;1.92;;;;;;;;;;4997835;28;20239;-44
2023/05/09 08:04:36;;;;;;;3.05;1.92;;;;;;;;;;4997315;28;20189;-44
2023/05/09 08:07:02;;;;;;;2.58;1.90;;;;;;;;;;4995558;28;20180;-44
2023/05/09 08:09:28;;;;;;;16.50;2.50;;;;;;;;;;4995264;28;20177;-44
2023/05/09 08:11:54;;;;;;;2.90;2.13;;;;;;;;;;4996241;28;20200;-44
2023/05/09 08:14:20;;;;;;;2.35;2.10;;;;;;;;;;4997840;28;20185;-44
2023/05/09 08:16:46;;;;;;;2.72;1.90;;;;;;;;;;4994587;28;20197;-44
2023/05/09 08:19:12;;;;;;;2.10;1.90;;;;;;;;;;4995301;28;20545;-44
2023/05/09 08:21:38;;;;;;;2.50;1.75;;;;;;;;;;4977468;28;20292;-44
2023/05/09 08:24:06;;;;;;;2.40;2.10;;;;;;;;;;5001607;28;20284;-44
2023/05/09 08:26:32;;;;;;;2.88;2.10;;;;;;;;;;4997020;28;20177;-44
2023/05/09 08:28:59;;;;;;;4.30;2.13;;;;;;;;;;4996380;28;20565;-44
2023/05/09 08:31:25;;;;;;;2.53;1.73;;;;;;;;;;4997176;28;20177;-44
2023/05/09 08:33:51;;;;;;;2.58;1.90;;;;;;;;;;4997054;28;20188;-44
2023/05/09 08:36:17;;;;;;;2.17;1.90;;;;;;;;;;4997465;28;20473;-44
2023/05/09 08:38:43;;;;;;;3.00;1.98;;;;;;;;;;4994848;28;20625;-44
2023/05/09 08:41:09;;;;;;;3.40;2.35;;;;;;;;;;4996647;28;20633;-44
2023/05/09 08:43:35;;;;;;;3.33;2.20;;;;;;;;;;4996410;28;20295;-44
2023/05/09 08:46:07;;;;;;;2.40;2.00;;;;;;;;;;4993501;28;20244;-44
2023/05/09 08:48:36;;;;;;;2.17;1.80;;;;;;;;;;4993059;28;20189;-44
2023/05/09 08:51:02;;;;;;;2.20;2.00;;;;;;;;;;4996099;28;20177;-44
2023/05/09 08:53:28;;;;;;;1.85;1.60;;;;;;;;;;4996059;28;20193;-44
2023/05/09 08:55:54;;;;;;;7.10;2.20;;;;;;;;;;4993828;28;20223;-44
2023/05/09 08:58:21;;;;;;;2.50;2.30;;;;;;;;;;4994483;28;20181;-44
2023/05/09 09:00:49;;;;;;;1.77;1.67;;;;;;;;;;4996221;28;20258;-44
2023/05/09 09:03:16;;;;;;;1.73;1.42;;;;;;;;;;4995513;28;20509;-44
2023/05/09 09:05:42;;;;;;;2.10;1.90;;;;;;;;;;4995790;28;20221;-44
2023/05/09 09:08:09;;;;;;;2.33;1.85;;;;;;;;;;4995380;28;20530;-44
2023/05/09 09:10:38;;;;;;;2.38;1.85;;;;;;;;;;4994980;28;20231;-44
2023/05/09 09:13:05;;;;;;;2.40;1.80;;;;;;;;;;4994942;28;20185;-44
2023/05/09 09:15:34;;;;;;;4.60;2.00;;;;;;;;;;4995804;28;20201;-41
2023/05/09 09:18:05;;;;;;;2.22;2.00;;;;;;;;;;4996225;28;20177;-44
2023/05/09 09:20:31;;;;;;;2.67;2.15;;;;;;;;;;4994438;28;20173;-44
2023/05/09 09:23:00;;;;;;;2.90;2.22;;;;;;;;;;4992716;28;20311;-44
2023/05/09 09:25:26;;;;;;;2.40;1.85;;;;;;;;;;4991140;28;20620;-44
2023/05/09 09:27:52;;;;;;;4.57;2.10;;;;;;;;;;4994917;28;20200;-42
2023/05/09 09:30:18;;;;;;;3.85;2.17;;;;;;;;;;4994809;28;20217;-42
2023/05/09 09:32:44;;;;;;;3.15;1.85;;;;;;;;;;4996023;28;20615;-44
2023/05/09 09:35:11;;;;;;;2.42;2.05;;;;;;;;;;4994908;28;20227;-44
2023/05/09 09:37:39;;;;;;;2.67;1.80;;;;;;;;;;4995349;28;20213;-44
2023/05/09 09:40:07;;;;;;;2.45;1.80;;;;;;;;;;4994137;28;20453;-44
2023/05/09 09:43:00;;;;;;;1.75;1.63;;;;;;;;;;4994893;28;20215;-44
2023/05/09 09:45:26;;;;;;;2.20;1.90;;;;;;;;;;4991378;28;20209;-44
2023/05/09 09:47:53;;;;;;;2.55;1.85;;;;;;;;;;4995268;28;20208;-44
2023/05/09 09:50:22;;;;;;;2.05;1.70;;;;;;;;;;4993304;28;20573;-44
2023/05/09 09:52:54;;;;;;;2.40;2.15;;;;;;;;;;4993781;28;20204;-44
2023/05/09 09:55:21;;;;;;;5.88;2.00;;;;;;;;;;4993214;28;20196;-44
2023/05/09 09:57:47;;;;;;;3.25;2.00;;;;;;;;;;4994841;28;20192;-44
2023/05/09 10:00:14;;;;;;;3.33;1.85;;;;;;;;;;4994357;28;20207;-44
2023/05/09 10:02:59;;;;;;;2.30;1.77;;;;;;;;;;4993919;28;20189;-44
2023/05/09 10:05:26;;;;;;;2.08;1.88;;;;;;;;;;4994440;28;20216;-44
2023/05/09 10:07:57;;;;;;;3.78;1.90;;;;;;;;;;4995116;28;20181;-44
2023/05/09 10:10:26;;;;;;;1.85;1.70;;;;;;;;;;4994360;28;20888;-44
2023/05/09 10:12:53;;;;;;;2.40;1.70;;;;;;;;;;4993134;28;20185;-44
2023/05/09 10:15:20;;;;;;;3.08;1.77;;;;;;;;;;4988489;28;20285;-44
2023/05/09 10:17:47;;;;;;;4.30;1.90;;;;;;;;;;4994317;28;20604;-44
2023/05/09 10:20:13;;;;;;;3.20;1.70;;;;;;;;;;4992659;28;20239;-44
2023/05/09 10:22:39;;;;;;;3.15;2.00;;;;;;;;;;4990681;28;20193;-44
2023/05/09 10:25:11;;;;;;;2.80;2.15;;;;;;;;;;4994204;28;20205;-44
2023/05/09 10:27:38;;;;;;;4.00;2.03;;;;;;;;;;4991849;28;20603;-44
2023/05/09 10:30:09;;;;;;;2.15;1.80;;;;;;;;;;4993805;28;20196;-44
2023/05/09 10:32:49;;;;;;;3.05;1.60;;;;;;;;;;4994048;28;20565;-44
2023/05/09 10:35:16;;;;;;;3.90;1.75;;;;;;;;;;4987983;28;20177;-44
2023/05/09 10:37:43;;;;;;;1.83;1.60;;;;;;;;;;4994146;28;20185;-42
2023/05/09 10:40:14;;;;;;;2.80;1.80;;;;;;;;;;4994152;28;20193;-42
2023/05/09 10:42:44;;;;;;;3.50;1.67;;;;;;;;;;4992737;28;20481;-42
2023/05/09 10:45:10;;;;;;;2.53;1.67;;;;;;;;;;4994580;28;20182;-42
2023/05/09 10:47:37;;;;;;;4.82;1.85;;;;;;;;;;4992905;28;20431;-44
2023/05/09 10:50:03;;;;;;;2.50;1.63;;;;;;;;;;4992522;28;20573;-42
2023/05/09 10:52:32;;;;;;;1.98;1.77;;;;;;;;;;4993257;28;20188;-44
2023/05/09 10:55:02;;;;;;;2.85;1.70;;;;;;;;;;4993282;28;20173;-44
2023/05/09 10:57:29;;;;;;;1.98;1.60;;;;;;;;;;4993620;28;20208;-44
2023/05/09 10:59:55;;;;;;;1.67;1.58;;;;;;;;;;4993543;28;20177;-42
2023/05/09 11:02:27;;;;;;;3.35;1.52;;;;;;;;;;4992278;28;21771;-44
2023/05/09 11:05:13;;;;;;;1.63;1.48;;;;;;;;;;4989355;28;20557;-42
2023/05/09 11:07:39;;;;;;;2.47;1.52;;;;;;;;;;4997119;28;20295;-42
2023/05/09 11:10:08;;;;;;;2.67;1.40;;;;;;;;;;4998220;28;20220;-42
2023/05/09 11:12:34;;;;;;;2.75;1.48;;;;;;;;;;4996767;28;20565;-42
2023/05/09 11:15:05;;;;;;;2.65;1.77;;;;;;;;;;4995962;28;20194;-42
2023/05/09 11:17:31;;;;;;;3.00;1.33;;;;;;;;;;4997075;28;20223;-42
2023/05/09 11:19:58;;;;;;;2.15;1.50;;;;;;;;;;4989117;28;20181;-44
2023/05/09 11:22:31;;;;;;;3.05;1.70;;;;;;;;;;4997657;28;20181;-44
2023/05/09 11:25:04;;;;;;;1.85;1.48;;;;;;;;;;4996935;28;20201;-44
2023/05/09 11:27:37;;;;;;;1.48;1.38;;;;;;;;;;4996986;28;20212;-44
2023/05/09 11:30:05;;;;;;;3.90;1.60;;;;;;;;;;4997599;28;20192;-44
2023/05/09 11:32:31;;;;;;;1.67;1.40;;;;;;;;;;4997616;28;20200;-44
2023/05/09 11:35:06;;;;;;;2.53;1.88;;;;;;;;;;4996895;28;20207;-44
2023/05/09 11:37:32;;;;;;;2.92;1.52;;;;;;;;;;4995519;28;20204;-44
2023/05/09 11:39:59;;;;;;;2.65;1.83;;;;;;;;;;4996887;28;20185;-44
2023/05/09 11:42:28;;;;;;;3.42;1.60;;;;;;;;;;4997635;28;20181;-44
2023/05/09 11:44:55;;;;;;;2.33;1.65;;;;;;;;;;4996934;28;20508;-42
2023/05/09 11:47:21;;;;;;;8.02;1.45;;;;;;;;;;4996578;28;20192;-42
2023/05/09 11:49:48;;;;;;;2.55;1.63;;;;;;;;;;4996654;28;20500;-42
2023/05/09 11:52:14;;;;;;;3.70;2.00;;;;;;;;;;4997556;28;20186;-42
2023/05/09 11:54:41;;;;;;;2.65;1.50;;;;;;;;;;4997768;28;20209;-44
2023/05/09 11:57:07;;;;;;;2.95;1.50;;;;;;;;;;4995708;28;20201;-44
2023/05/09 11:59:33;;;;;;;2.35;1.58;;;;;;;;;;4995541;28;20213;-44
2023/05/09 12:02:06;;;;;;;1.40;1.30;;;;;;;;;;4995989;28;20205;-44
2023/05/09 12:04:32;;;;;;;5.18;1.45;;;;;;;;;;4997470;28;20169;-44
2023/05/09 12:06:59;;;;;;;1.52;1.25;;;;;;;;;;4989978;28;20687;-44
2023/05/09 12:09:26;;;;;;;1.98;1.55;;;;;;;;;;4995133;28;20197;-44
2023/05/09 12:11:52;;;;;;;1.85;1.38;;;;;;;;;;4997321;28;20669;-44
2023/05/09 12:14:34;;;;;;;3.53;1.48;;;;;;;;;;4997977;28;20181;-44
2023/05/09 12:17:00;;;;;;;2.05;1.60;;;;;;;;;;4996342;28;20481;-44
2023/05/09 12:19:26;;;;;;;3.13;1.60;;;;;;;;;;4997001;28;20184;-44
2023/05/09 12:21:58;;;;;;;4.75;1.48;;;;;;;;;;4997060;28;20185;-44
2023/05/09 12:24:27;;;;;;;2.50;1.33;;;;;;;;;;4997056;28;20228;-44
2023/05/09 12:26:54;;;;;;;1.63;1.33;;;;;;;;;;4996885;28;20272;-44
2023/05/09 12:29:20;;;;;;;2.95;1.63;;;;;;;;;;4996592;28;20185;-44
2023/05/09 12:31:47;;;;;;;3.92;2.33;;;;;;;;;;4997458;28;20268;-44
2023/05/09 12:34:13;;;;;;;1.70;1.60;;;;;;;;;;4996421;28;20461;-44
2023/05/09 12:36:39;;;;;;;3.25;1.50;;;;;;;;;;4996868;28;20209;-44
2023/05/09 12:39:09;;;;;;;2.10;1.70;;;;;;;;;;4995380;28;20181;-44
2023/05/09 12:41:35;;;;;;;1.92;1.70;;;;;;;;;;4996823;28;20183;-45
2023/05/09 12:44:01;;;;;;;2.33;1.52;;;;;;;;;;4995512;28;20189;-44
2023/05/09 12:46:27;;;;;;;4.00;1.60;;;;;;;;;;4994616;28;20185;-42
2023/05/09 12:48:53;;;;;;;4.18;1.75;;;;;;;;;;4994995;28;20204;-44
2023/05/09 12:51:20;;;;;;;4.20;1.85;;;;;;;;;;4996343;28;20189;-44
2023/05/09 12:53:46;;;;;;;2.28;1.73;;;;;;;;;;4995533;28;20181;-44
2023/05/09 12:56:24;;;;;;;8.15;1.70;;;;;;;;;;4994913;28;20209;-44
2023/05/09 12:58:51;;;;;;;5.43;1.73;;;;;;;;;;4995089;28;20235;-44
2023/05/09 13:01:17;;;;;;;4.07;1.80;;;;;;;;;;4996414;28;20516;-43
2023/05/09 13:03:43;;;;;;;5.28;1.80;;;;;;;;;;4994975;28;20239;-45
2023/05/09 13:06:14;;;;;;;2.85;1.77;;;;;;;;;;4996014;28;20177;-44
2023/05/09 13:08:40;;;;;;;3.53;1.50;;;;;;;;;;4994794;28;20200;-44
2023/05/09 13:11:11;;;;;;;3.13;1.73;;;;;;;;;;4995303;28;20196;-44
2023/05/09 13:13:37;;;;;;;5.28;1.88;;;;;;;;;;4996601;28;20181;-45
2023/05/09 13:16:04;;;;;;;2.92;1.60;;;;;;;;;;4994843;28;20212;-44
2023/05/09 13:18:30;;;;;;;2.35;1.42;;;;;;;;;;4995029;28;20192;-45
2023/05/09 13:20:56;;;;;;;4.93;1.65;;;;;;;;;;4995086;28;20177;-43
2023/05/09 13:23:22;;;;;;;4.65;1.63;;;;;;;;;;4996119;28;20173;-43
2023/05/09 13:25:48;;;;;;;2.95;1.88;;;;;;;;;;4995723;28;20189;-43
2023/05/09 13:28:14;;;;;;;2.30;1.70;;;;;;;;;;4994935;28;20599;-44
2023/05/09 13:30:40;;;;;;;2.30;1.48;;;;;;;;;;4995008;28;20769;-44
2023/05/09 13:33:05;;;;;;;2.33;1.60;;;;;;;;;;4995020;28;20193;-44
2023/05/09 13:35:31;;;;;;;4.25;1.70;;;;;;;;;;4995405;28;20213;-44
2023/05/09 13:37:58;;;;;;;2.08;1.60;;;;;;;;;;4995394;28;20201;-44
2023/05/09 13:40:24;;;;;;;1.67;1.58;;;;;;;;;;4990094;28;20176;-43
2023/05/09 13:42:50;;;;;;;3.00;1.80;;;;;;;;;;4995495;28;20185;-44
2023/05/09 13:45:16;;;;;;;3.53;1.63;;;;;;;;;;4994581;28;20556;-44
2023/05/09 13:47:42;;;;;;;4.78;1.80;;;;;;;;;;4995547;28;20189;-44
2023/05/09 13:50:08;;;;;;;4.30;1.70;;;;;;;;;;4993200;28;20181;-44
2023/05/09 13:52:34;;;;;;;3.47;1.48;;;;;;;;;;4994636;28;20441;-44
2023/05/09 13:55:00;;;;;;;2.08;1.65;;;;;;;;;;4994883;28;20232;-44
2023/05/09 13:57:26;;;;;;;3.42;1.70;;;;;;;;;;4994679;28;20259;-44
2023/05/09 13:59:53;;;;;;;3.88;1.80;;;;;;;;;;4992718;28;20185;-44
2023/05/09 14:02:19;;;;;;;3.95;1.80;;;;;;;;;;4995698;28;20181;-44
2023/05/09 14:04:45;;;;;;;2.35;1.75;;;;;;;;;;4995057;28;20515;-44
2023/05/09 14:07:12;;;;;;;2.03;1.67;;;;;;;;;;4994072;28;20196;-43
2023/05/09 14:09:38;;;;;;;2.35;1.80;;;;;;;;;;4992619;28;20235;-44
2023/05/09 14:12:05;;;;;;;3.72;1.52;;;;;;;;;;4993875;28;20239;-44
2023/05/09 14:14:31;;;;;;;2.05;1.60;;;;;;;;;;4994402;28;20477;-44
2023/05/09 14:16:58;;;;;;;4.65;1.90;;;;;;;;;;4994871;28;20197;-44
2023/05/09 14:19:25;;;;;;;4.38;1.98;;;;;;;;;;4993878;28;20184;-44
2023/05/09 14:21:52;;;;;;;2.78;2.03;;;;;;;;;;4994366;28;20212;-44
2023/05/09 14:24:18;;;;;;;2.40;1.70;;;;;;;;;;4996685;28;20177;-44
2023/05/09 14:26:44;;;;;;;3.42;1.70;;;;;;;;;;4990797;28;20820;-44
2023/05/09 14:29:10;;;;;;;3.30;1.65;;;;;;;;;;4993742;28;20185;-44
2023/05/09 14:31:36;;;;;;;3.97;2.17;;;;;;;;;;4993241;28;20240;-44
2023/05/09 14:34:03;;;;;;;2.47;1.33;;;;;;;;;;4992494;28;20566;-44
2023/05/09 14:36:30;;;;;;;3.00;1.77;;;;;;;;;;4993558;28;20252;-44
2023/05/09 14:38:56;;;;;;;4.43;2.13;;;;;;;;;;4994238;28;20200;-43
2023/05/09 14:41:21;;;;;;;3.08;1.90;;;;;;;;;;4993418;28;20785;-43